sensor_id;sensor_type;location;lat;lon;timestamp;P1;durP1;ratioP1;P2;durP2;ratioP2
19456;SDS011;9867;48.094;11.478;2023-02-08T00:01:20;18.53;;;11.07;;
19456;SDS011;9867;48.094;11.478;2023-02-08T00:03:49;14.57;;;10.50;;
19456;SDS011;9867;48.094;11.478;2023-02-08T00:06:16;18.13;;;10.20;;
19456;SDS011;9867;48.094;11.478;2023-02-08T00:08:43;14.93;;;9.97;;
19456;SDS011;9867;48.094;11.478;2023-02-08T00:11:10;15.67;;;11.30;;
19456;SDS011;9867;48.094;11.478;2023-02-08T00:13:37;18.07;;;13.33;;
19456;SDS011;9867;48.094;11.478;2023-02-08T00:16:08;16.27;;;13.47;;
19456;SDS011;9867;48.094;11.478;2023-02-08T00:18:35;15.77;;;12.80;;
19456;SDS011;9867;48.094;11.478;2023-02-08T00:21:05;15.50;;;13.90;;
19456;SDS011;9867;48.094;11.478;2023-02-08T00:23:33;17.60;;;13.47;;
19456;SDS011;9867;48.094;11.478;2023-02-08T00:25:59;18.50;;;13.17;;
19456;SDS011;9867;48.094;11.478;2023-02-08T00:28:25;17.47;;;13.30;;
19456;SDS011;9867;48.094;11.478;2023-02-08T00:30:52;18.80;;;14.60;;
19456;SDS011;9867;48.094;11.478;2023-02-08T00:33:19;16.63;;;13.00;;
19456;SDS011;9867;48.094;11.478;2023-02-08T00:35:45;15.87;;;13.30;;
19456;SDS011;9867;48.094;11.478;2023-02-08T00:38:12;16.73;;;12.77;;
19456;SDS011;9867;48.094;11.478;2023-02-08T00:40:38;19.37;;;13.70;;
19456;SDS011;9867;48.094;11.478;2023-02-08T00:43:05;18.30;;;12.40;;
19456;SDS011;9867;48.094;11.478;2023-02-08T00:45:33;16.73;;;12.80;;
19456;SDS011;9867;48.094;11.478;2023-02-08T00:47:59;15.17;;;12.83;;
19456;SDS011;9867;48.094;11.478;2023-02-08T00:50:27;15.40;;;13.17;;
19456;SDS011;9867;48.094;11.478;2023-02-08T00:52:54;14.83;;;12.80;;
19456;SDS011;9867;48.094;11.478;2023-02-08T00:55:23;16.67;;;12.43;;
19456;SDS011;9867;48.094;11.478;2023-02-08T00:57:50;15.33;;;13.27;;
19456;SDS011;9867;48.094;11.478;2023-02-08T01:00:17;18.47;;;13.60;;
19456;SDS011;9867;48.094;11.478;2023-02-08T01:02:43;16.63;;;13.73;;
19456;SDS011;9867;48.094;11.478;2023-02-08T01:05:10;15.40;;;13.47;;
19456;SDS011;9867;48.094;11.478;2023-02-08T01:07:38;15.00;;;13.03;;
19456;SDS011;9867;48.094;11.478;2023-02-08T01:10:05;15.90;;;13.63;;
19456;SDS011;9867;48.094;11.478;2023-02-08T01:12:33;16.20;;;13.60;;
19456;SDS011;9867;48.094;11.478;2023-02-08T01:15:00;16.37;;;13.27;;
19456;SDS011;9867;48.094;11.478;2023-02-08T01:17:27;18.10;;;13.70;;
19456;SDS011;9867;48.094;11.478;2023-02-08T01:19:53;15.63;;;13.67;;
19456;SDS011;9867;48.094;11.478;2023-02-08T01:22:20;17.10;;;14.03;;
19456;SDS011;9867;48.094;11.478;2023-02-08T01:24:47;17.00;;;13.80;;
19456;SDS011;9867;48.094;11.478;2023-02-08T01:27:13;15.23;;;13.60;;
19456;SDS011;9867;48.094;11.478;2023-02-08T01:29:40;17.20;;;14.10;;
19456;SDS011;9867;48.094;11.478;2023-02-08T01:32:06;17.23;;;14.33;;
19456;SDS011;9867;48.094;11.478;2023-02-08T01:34:33;15.13;;;13.50;;
19456;SDS011;9867;48.094;11.478;2023-02-08T01:36:59;17.70;;;15.07;;
19456;SDS011;9867;48.094;11.478;2023-02-08T01:39:25;18.63;;;14.87;;
19456;SDS011;9867;48.094;11.478;2023-02-08T01:41:53;18.77;;;14.47;;
19456;SDS011;9867;48.094;11.478;2023-02-08T01:47:23;17.90;;;15.03;;
19456;SDS011;9867;48.094;11.478;2023-02-08T01:49:50;15.93;;;14.07;;
19456;SDS011;9867;48.094;11.478;2023-02-08T01:52:17;15.83;;;14.13;;
19456;SDS011;9867;48.094;11.478;2023-02-08T01:54:47;18.00;;;14.80;;
19456;SDS011;9867;48.094;11.478;2023-02-08T01:57:19;18.40;;;14.83;;
19456;SDS011;9867;48.094;11.478;2023-02-08T01:59:48;16.83;;;15.03;;
19456;SDS011;9867;48.094;11.478;2023-02-08T02:02:21;17.63;;;15.33;;
19456;SDS011;9867;48.094;11.478;2023-02-08T02:04:51;18.77;;;15.73;;
19456;SDS011;9867;48.094;11.478;2023-02-08T02:07:19;16.60;;;14.83;;
19456;SDS011;9867;48.094;11.478;2023-02-08T02:09:48;19.03;;;15.63;;
19456;SDS011;9867;48.094;11.478;2023-02-08T02:12:19;17.47;;;15.07;;
19456;SDS011;9867;48.094;11.478;2023-02-08T02:14:46;17.50;;;15.67;;
19456;SDS011;9867;48.094;11.478;2023-02-08T02:17:14;17.57;;;15.17;;
19456;SDS011;9867;48.094;11.478;2023-02-08T02:19:45;16.50;;;14.80;;
19456;SDS011;9867;48.094;11.478;2023-02-08T02:22:24;17.37;;;15.40;;
19456;SDS011;9867;48.094;11.478;2023-02-08T02:25:38;18.37;;;15.23;;
19456;SDS011;9867;48.094;11.478;2023-02-08T02:31:47;18.63;;;15.53;;
19456;SDS011;9867;48.094;11.478;2023-02-08T02:34:33;18.57;;;15.97;;
19456;SDS011;9867;48.094;11.478;2023-02-08T02:37:08;17.80;;;15.23;;
19456;SDS011;9867;48.094;11.478;2023-02-08T02:39:47;17.23;;;14.73;;
19456;SDS011;9867;48.094;11.478;2023-02-08T02:42:24;17.93;;;15.93;;
19456;SDS011;9867;48.094;11.478;2023-02-08T02:45:17;18.20;;;16.30;;
19456;SDS011;9867;48.094;11.478;2023-02-08T02:47:50;17.57;;;15.70;;
19456;SDS011;9867;48.094;11.478;2023-02-08T02:50:21;19.80;;;16.80;;
19456;SDS011;9867;48.094;11.478;2023-02-08T02:52:56;18.47;;;16.50;;
19456;SDS011;9867;48.094;11.478;2023-02-08T02:55:27;18.37;;;15.83;;
19456;SDS011;9867;48.094;11.478;2023-02-08T02:57:58;19.40;;;16.27;;
19456;SDS011;9867;48.094;11.478;2023-02-08T03:00:29;17.53;;;15.37;;
19456;SDS011;9867;48.094;11.478;2023-02-08T03:02:58;18.87;;;16.77;;
19456;SDS011;9867;48.094;11.478;2023-02-08T03:05:25;18.47;;;16.30;;
19456;SDS011;9867;48.094;11.478;2023-02-08T03:08:00;20.17;;;16.37;;
19456;SDS011;9867;48.094;11.478;2023-02-08T03:13:31;19.67;;;15.70;;
19456;SDS011;9867;48.094;11.478;2023-02-08T03:16:10;17.27;;;15.43;;
19456;SDS011;9867;48.094;11.478;2023-02-08T03:18:46;19.23;;;16.37;;
19456;SDS011;9867;48.094;11.478;2023-02-08T03:21:26;17.53;;;15.60;;
19456;SDS011;9867;48.094;11.478;2023-02-08T03:24:04;17.90;;;16.00;;
19456;SDS011;9867;48.094;11.478;2023-02-08T03:26:42;16.87;;;15.07;;
19456;SDS011;9867;48.094;11.478;2023-02-08T03:29:16;19.57;;;15.90;;
19456;SDS011;9867;48.094;11.478;2023-02-08T03:31:52;18.70;;;15.23;;
19456;SDS011;9867;48.094;11.478;2023-02-08T03:34:26;18.93;;;15.23;;
19456;SDS011;9867;48.094;11.478;2023-02-08T03:36:56;17.10;;;15.30;;
19456;SDS011;9867;48.094;11.478;2023-02-08T03:39:27;19.83;;;15.80;;
19456;SDS011;9867;48.094;11.478;2023-02-08T03:41:57;18.17;;;16.03;;
19456;SDS011;9867;48.094;11.478;2023-02-08T03:44:31;17.80;;;15.70;;
19456;SDS011;9867;48.094;11.478;2023-02-08T03:47:03;18.47;;;14.57;;
19456;SDS011;9867;48.094;11.478;2023-02-08T03:49:37;18.90;;;15.70;;
19456;SDS011;9867;48.094;11.478;2023-02-08T03:52:06;20.13;;;16.13;;
19456;SDS011;9867;48.094;11.478;2023-02-08T03:54:36;18.30;;;15.70;;
19456;SDS011;9867;48.094;11.478;2023-02-08T03:57:09;19.43;;;15.80;;
19456;SDS011;9867;48.094;11.478;2023-02-08T03:59:41;19.47;;;15.57;;
19456;SDS011;9867;48.094;11.478;2023-02-08T04:02:11;17.53;;;15.63;;
19456;SDS011;9867;48.094;11.478;2023-02-08T04:04:42;18.17;;;16.27;;
19456;SDS011;9867;48.094;11.478;2023-02-08T04:07:11;18.63;;;15.80;;
19456;SDS011;9867;48.094;11.478;2023-02-08T04:09:38;18.43;;;15.53;;
19456;SDS011;9867;48.094;11.478;2023-02-08T04:12:05;18.07;;;14.90;;
19456;SDS011;9867;48.094;11.478;2023-02-08T04:14:33;17.63;;;15.70;;
19456;SDS011;9867;48.094;11.478;2023-02-08T04:16:59;20.00;;;16.13;;
19456;SDS011;9867;48.094;11.478;2023-02-08T04:19:26;18.77;;;16.17;;
19456;SDS011;9867;48.094;11.478;2023-02-08T04:21:53;19.13;;;16.20;;
19456;SDS011;9867;48.094;11.478;2023-02-08T04:24:20;17.33;;;15.47;;
19456;SDS011;9867;48.094;11.478;2023-02-08T04:26:46;20.00;;;16.67;;
19456;SDS011;9867;48.094;11.478;2023-02-08T04:29:13;18.10;;;16.13;;
19456;SDS011;9867;48.094;11.478;2023-02-08T04:31:40;18.33;;;15.43;;
19456;SDS011;9867;48.094;11.478;2023-02-08T04:34:06;21.23;;;17.80;;
19456;SDS011;9867;48.094;11.478;2023-02-08T04:36:33;18.50;;;16.17;;
19456;SDS011;9867;48.094;11.478;2023-02-08T04:39:00;19.37;;;16.07;;
19456;SDS011;9867;48.094;11.478;2023-02-08T04:41:26;18.73;;;16.60;;
19456;SDS011;9867;48.094;11.478;2023-02-08T04:43:53;20.23;;;16.67;;
19456;SDS011;9867;48.094;11.478;2023-02-08T04:46:19;19.60;;;17.43;;
19456;SDS011;9867;48.094;11.478;2023-02-08T04:48:46;21.03;;;17.27;;
19456;SDS011;9867;48.094;11.478;2023-02-08T04:51:12;19.90;;;16.03;;
19456;SDS011;9867;48.094;11.478;2023-02-08T04:53:39;19.30;;;17.07;;
19456;SDS011;9867;48.094;11.478;2023-02-08T04:56:06;19.73;;;16.97;;
19456;SDS011;9867;48.094;11.478;2023-02-08T04:58:33;20.33;;;18.17;;
19456;SDS011;9867;48.094;11.478;2023-02-08T05:01:00;19.17;;;16.73;;
19456;SDS011;9867;48.094;11.478;2023-02-08T05:03:26;19.63;;;16.93;;
19456;SDS011;9867;48.094;11.478;2023-02-08T05:05:56;18.63;;;16.43;;
19456;SDS011;9867;48.094;11.478;2023-02-08T05:08:23;24.07;;;18.30;;
19456;SDS011;9867;48.094;11.478;2023-02-08T05:10:50;22.50;;;18.00;;
19456;SDS011;9867;48.094;11.478;2023-02-08T05:13:17;19.00;;;16.53;;
19456;SDS011;9867;48.094;11.478;2023-02-08T05:15:43;23.57;;;17.40;;
19456;SDS011;9867;48.094;11.478;2023-02-08T05:18:10;21.47;;;17.90;;
19456;SDS011;9867;48.094;11.478;2023-02-08T05:20:37;21.07;;;17.97;;
19456;SDS011;9867;48.094;11.478;2023-02-08T05:23:04;21.77;;;17.13;;
19456;SDS011;9867;48.094;11.478;2023-02-08T05:25:30;20.60;;;17.77;;
19456;SDS011;9867;48.094;11.478;2023-02-08T05:27:57;22.10;;;18.33;;
19456;SDS011;9867;48.094;11.478;2023-02-08T05:30:25;20.63;;;17.90;;
19456;SDS011;9867;48.094;11.478;2023-02-08T05:32:51;20.53;;;18.30;;
19456;SDS011;9867;48.094;11.478;2023-02-08T05:35:17;25.03;;;19.23;;
19456;SDS011;9867;48.094;11.478;2023-02-08T05:37:44;20.17;;;17.33;;
19456;SDS011;9867;48.094;11.478;2023-02-08T05:40:10;22.10;;;18.83;;
19456;SDS011;9867;48.094;11.478;2023-02-08T05:42:37;21.80;;;18.40;;
19456;SDS011;9867;48.094;11.478;2023-02-08T05:45:04;22.90;;;18.70;;
19456;SDS011;9867;48.094;11.478;2023-02-08T05:47:32;23.17;;;18.40;;
19456;SDS011;9867;48.094;11.478;2023-02-08T05:49:59;20.90;;;17.37;;
19456;SDS011;9867;48.094;11.478;2023-02-08T05:52:25;21.67;;;19.07;;
19456;SDS011;9867;48.094;11.478;2023-02-08T05:54:52;20.67;;;16.97;;
19456;SDS011;9867;48.094;11.478;2023-02-08T05:57:18;23.50;;;18.90;;
19456;SDS011;9867;48.094;11.478;2023-02-08T05:59:45;23.03;;;18.50;;
19456;SDS011;9867;48.094;11.478;2023-02-08T06:02:11;21.87;;;18.70;;
19456;SDS011;9867;48.094;11.478;2023-02-08T06:04:39;24.27;;;18.00;;
19456;SDS011;9867;48.094;11.478;2023-02-08T06:07:05;24.50;;;18.90;;
19456;SDS011;9867;48.094;11.478;2023-02-08T06:09:33;23.30;;;19.37;;
19456;SDS011;9867;48.094;11.478;2023-02-08T06:11:59;24.30;;;18.67;;
19456;SDS011;9867;48.094;11.478;2023-02-08T06:14:26;23.00;;;19.37;;
19456;SDS011;9867;48.094;11.478;2023-02-08T06:16:52;22.40;;;19.33;;
19456;SDS011;9867;48.094;11.478;2023-02-08T06:19:19;22.07;;;18.27;;
19456;SDS011;9867;48.094;11.478;2023-02-08T06:21:47;25.87;;;18.93;;
19456;SDS011;9867;48.094;11.478;2023-02-08T06:24:13;28.00;;;20.87;;
19456;SDS011;9867;48.094;11.478;2023-02-08T06:26:41;27.77;;;20.50;;
19456;SDS011;9867;48.094;11.478;2023-02-08T06:29:07;26.00;;;19.97;;
19456;SDS011;9867;48.094;11.478;2023-02-08T06:31:34;21.80;;;18.77;;
19456;SDS011;9867;48.094;11.478;2023-02-08T06:34:01;23.70;;;19.50;;
19456;SDS011;9867;48.094;11.478;2023-02-08T06:36:28;25.87;;;20.57;;
19456;SDS011;9867;48.094;11.478;2023-02-08T06:38:55;24.37;;;20.37;;
19456;SDS011;9867;48.094;11.478;2023-02-08T06:41:22;25.90;;;20.37;;
19456;SDS011;9867;48.094;11.478;2023-02-08T06:43:48;25.00;;;20.20;;
19456;SDS011;9867;48.094;11.478;2023-02-08T06:46:15;30.27;;;20.43;;
19456;SDS011;9867;48.094;11.478;2023-02-08T06:48:41;26.03;;;20.73;;
19456;SDS011;9867;48.094;11.478;2023-02-08T06:51:08;33.60;;;21.10;;
19456;SDS011;9867;48.094;11.478;2023-02-08T06:53:37;26.43;;;22.50;;
19456;SDS011;9867;48.094;11.478;2023-02-08T06:56:05;23.07;;;20.07;;
19456;SDS011;9867;48.094;11.478;2023-02-08T06:58:31;24.33;;;20.60;;
19456;SDS011;9867;48.094;11.478;2023-02-08T07:00:58;27.53;;;21.10;;
19456;SDS011;9867;48.094;11.478;2023-02-08T07:03:24;27.43;;;20.93;;
19456;SDS011;9867;48.094;11.478;2023-02-08T07:05:51;25.33;;;20.80;;
19456;SDS011;9867;48.094;11.478;2023-02-08T07:08:30;24.17;;;21.07;;
19456;SDS011;9867;48.094;11.478;2023-02-08T07:10:57;26.00;;;21.90;;
19456;SDS011;9867;48.094;11.478;2023-02-08T07:13:24;27.40;;;21.30;;
19456;SDS011;9867;48.094;11.478;2023-02-08T07:15:51;29.37;;;21.50;;
19456;SDS011;9867;48.094;11.478;2023-02-08T07:18:18;26.50;;;21.90;;
19456;SDS011;9867;48.094;11.478;2023-02-08T07:20:44;25.70;;;22.10;;
19456;SDS011;9867;48.094;11.478;2023-02-08T07:23:11;25.47;;;20.73;;
19456;SDS011;9867;48.094;11.478;2023-02-08T07:25:37;28.97;;;21.83;;
19456;SDS011;9867;48.094;11.478;2023-02-08T07:28:04;26.27;;;21.73;;
19456;SDS011;9867;48.094;11.478;2023-02-08T07:30:31;25.03;;;21.80;;
19456;SDS011;9867;48.094;11.478;2023-02-08T07:32:57;24.67;;;21.03;;
19456;SDS011;9867;48.094;11.478;2023-02-08T07:35:24;25.53;;;21.07;;
19456;SDS011;9867;48.094;11.478;2023-02-08T07:37:50;23.10;;;20.60;;
19456;SDS011;9867;48.094;11.478;2023-02-08T07:40:17;25.10;;;21.17;;
19456;SDS011;9867;48.094;11.478;2023-02-08T07:42:43;25.23;;;20.63;;
19456;SDS011;9867;48.094;11.478;2023-02-08T07:45:20;26.63;;;20.27;;
19456;SDS011;9867;48.094;11.478;2023-02-08T07:47:47;25.07;;;20.33;;
19456;SDS011;9867;48.094;11.478;2023-02-08T07:50:14;25.13;;;22.37;;
19456;SDS011;9867;48.094;11.478;2023-02-08T07:52:41;23.80;;;20.30;;
19456;SDS011;9867;48.094;11.478;2023-02-08T07:55:10;24.80;;;21.17;;
19456;SDS011;9867;48.094;11.478;2023-02-08T07:57:41;25.27;;;20.53;;
19456;SDS011;9867;48.094;11.478;2023-02-08T08:00:08;28.27;;;19.90;;
19456;SDS011;9867;48.094;11.478;2023-02-08T08:02:37;22.53;;;19.77;;
19456;SDS011;9867;48.094;11.478;2023-02-08T08:05:05;24.03;;;20.23;;
19456;SDS011;9867;48.094;11.478;2023-02-08T08:07:32;22.93;;;19.27;;
19456;SDS011;9867;48.094;11.478;2023-02-08T08:09:58;24.10;;;20.03;;
19456;SDS011;9867;48.094;11.478;2023-02-08T08:12:25;25.87;;;20.00;;
19456;SDS011;9867;48.094;11.478;2023-02-08T08:14:51;22.57;;;19.23;;
19456;SDS011;9867;48.094;11.478;2023-02-08T08:17:18;22.53;;;18.83;;
19456;SDS011;9867;48.094;11.478;2023-02-08T08:19:44;22.67;;;19.23;;
19456;SDS011;9867;48.094;11.478;2023-02-08T08:22:11;22.93;;;19.53;;
19456;SDS011;9867;48.094;11.478;2023-02-08T08:24:38;21.93;;;19.53;;
19456;SDS011;9867;48.094;11.478;2023-02-08T08:27:04;26.77;;;19.03;;
19456;SDS011;9867;48.094;11.478;2023-02-08T08:29:31;23.67;;;18.30;;
19456;SDS011;9867;48.094;11.478;2023-02-08T08:31:58;21.67;;;18.33;;
19456;SDS011;9867;48.094;11.478;2023-02-08T08:34:25;29.93;;;19.40;;
19456;SDS011;9867;48.094;11.478;2023-02-08T08:36:54;21.10;;;17.23;;
19456;SDS011;9867;48.094;11.478;2023-02-08T08:39:21;22.13;;;18.07;;
19456;SDS011;9867;48.094;11.478;2023-02-08T08:41:48;20.70;;;17.83;;
19456;SDS011;9867;48.094;11.478;2023-02-08T08:44:14;28.17;;;19.30;;
19456;SDS011;9867;48.094;11.478;2023-02-08T08:46:41;23.00;;;17.63;;
19456;SDS011;9867;48.094;11.478;2023-02-08T08:49:08;24.63;;;18.43;;
19456;SDS011;9867;48.094;11.478;2023-02-08T08:51:34;21.63;;;18.63;;
19456;SDS011;9867;48.094;11.478;2023-02-08T08:54:01;23.50;;;18.13;;
19456;SDS011;9867;48.094;11.478;2023-02-08T08:56:29;21.50;;;18.63;;
19456;SDS011;9867;48.094;11.478;2023-02-08T08:58:56;22.93;;;17.83;;
19456;SDS011;9867;48.094;11.478;2023-02-08T09:01:22;20.00;;;17.50;;
19456;SDS011;9867;48.094;11.478;2023-02-08T09:03:49;20.60;;;16.87;;
19456;SDS011;9867;48.094;11.478;2023-02-08T09:06:15;20.63;;;16.73;;
19456;SDS011;9867;48.094;11.478;2023-02-08T09:08:42;17.83;;;15.23;;
19456;SDS011;9867;48.094;11.478;2023-02-08T09:11:09;19.23;;;16.57;;
19456;SDS011;9867;48.094;11.478;2023-02-08T09:13:38;19.23;;;16.80;;
19456;SDS011;9867;48.094;11.478;2023-02-08T09:16:05;21.90;;;16.77;;
19456;SDS011;9867;48.094;11.478;2023-02-08T09:18:36;19.83;;;15.83;;
19456;SDS011;9867;48.094;11.478;2023-02-08T09:21:06;19.03;;;15.47;;
19456;SDS011;9867;48.094;11.478;2023-02-08T09:23:34;20.07;;;15.10;;
19456;SDS011;9867;48.094;11.478;2023-02-08T09:26:00;21.73;;;13.57;;
19456;SDS011;9867;48.094;11.478;2023-02-08T09:28:27;23.53;;;13.60;;
19456;SDS011;9867;48.094;11.478;2023-02-08T09:30:54;17.97;;;12.50;;
19456;SDS011;9867;48.094;11.478;2023-02-08T09:33:21;20.33;;;12.13;;
19456;SDS011;9867;48.094;11.478;2023-02-08T09:35:47;15.87;;;11.60;;
19456;SDS011;9867;48.094;11.478;2023-02-08T09:38:14;18.07;;;14.50;;
19456;SDS011;9867;48.094;11.478;2023-02-08T09:40:41;18.73;;;13.87;;
19456;SDS011;9867;48.094;11.478;2023-02-08T09:43:16;21.67;;;14.10;;
19456;SDS011;9867;48.094;11.478;2023-02-08T09:45:48;16.20;;;13.77;;
19456;SDS011;9867;48.094;11.478;2023-02-08T09:48:27;16.93;;;13.53;;
19456;SDS011;9867;48.094;11.478;2023-02-08T09:50:58;18.87;;;13.37;;
19456;SDS011;9867;48.094;11.478;2023-02-08T09:53:31;15.23;;;13.17;;
19456;SDS011;9867;48.094;11.478;2023-02-08T09:56:00;15.17;;;11.43;;
19456;SDS011;9867;48.094;11.478;2023-02-08T09:58:33;18.13;;;12.77;;
19456;SDS011;9867;48.094;11.478;2023-02-08T10:01:02;18.77;;;12.87;;
19456;SDS011;9867;48.094;11.478;2023-02-08T10:03:33;16.07;;;11.00;;
19456;SDS011;9867;48.094;11.478;2023-02-08T10:06:02;19.80;;;13.53;;
19456;SDS011;9867;48.094;11.478;2023-02-08T10:08:31;18.23;;;12.57;;
19456;SDS011;9867;48.094;11.478;2023-02-08T10:11:03;18.00;;;13.13;;
19456;SDS011;9867;48.094;11.478;2023-02-08T10:14:00;23.53;;;13.57;;
19456;SDS011;9867;48.094;11.478;2023-02-08T10:16:42;14.77;;;11.53;;
19456;SDS011;9867;48.094;11.478;2023-02-08T10:19:25;18.57;;;12.40;;
19456;SDS011;9867;48.094;11.478;2023-02-08T10:22:14;20.67;;;13.03;;
19456;SDS011;9867;48.094;11.478;2023-02-08T10:24:55;18.30;;;13.37;;
19456;SDS011;9867;48.094;11.478;2023-02-08T10:27:36;17.97;;;13.13;;
19456;SDS011;9867;48.094;11.478;2023-02-08T10:30:12;24.07;;;14.07;;
19456;SDS011;9867;48.094;11.478;2023-02-08T10:32:53;20.33;;;13.37;;
19456;SDS011;9867;48.094;11.478;2023-02-08T10:35:26;17.57;;;13.40;;
19456;SDS011;9867;48.094;11.478;2023-02-08T10:37:56;19.00;;;12.77;;
19456;SDS011;9867;48.094;11.478;2023-02-08T10:40:33;20.37;;;12.80;;
19456;SDS011;9867;48.094;11.478;2023-02-08T10:43:08;18.10;;;12.87;;
19456;SDS011;9867;48.094;11.478;2023-02-08T10:45:46;21.40;;;13.53;;
19456;SDS011;9867;48.094;11.478;2023-02-08T10:48:20;22.93;;;13.60;;
19456;SDS011;9867;48.094;11.478;2023-02-08T10:50:57;22.97;;;14.07;;
19456;SDS011;9867;48.094;11.478;2023-02-08T10:53:23;17.87;;;13.57;;
19456;SDS011;9867;48.094;11.478;2023-02-08T10:55:50;21.37;;;14.33;;
19456;SDS011;9867;48.094;11.478;2023-02-08T10:58:17;21.27;;;13.50;;
19456;SDS011;9867;48.094;11.478;2023-02-08T11:00:46;17.40;;;12.67;;
19456;SDS011;9867;48.094;11.478;2023-02-08T11:03:17;19.20;;;13.50;;
19456;SDS011;9867;48.094;11.478;2023-02-08T11:05:47;17.20;;;13.30;;
19456;SDS011;9867;48.094;11.478;2023-02-08T11:08:15;16.67;;;13.50;;
19456;SDS011;9867;48.094;11.478;2023-02-08T11:10:45;15.27;;;12.47;;
19456;SDS011;9867;48.094;11.478;2023-02-08T11:13:23;16.47;;;13.17;;
19456;SDS011;9867;48.094;11.478;2023-02-08T11:15:53;17.23;;;13.50;;
19456;SDS011;9867;48.094;11.478;2023-02-08T11:18:23;17.07;;;13.23;;
19456;SDS011;9867;48.094;11.478;2023-02-08T11:20:51;16.50;;;13.40;;
19456;SDS011;9867;48.094;11.478;2023-02-08T11:23:22;16.07;;;12.53;;
19456;SDS011;9867;48.094;11.478;2023-02-08T11:25:52;16.97;;;13.60;;
19456;SDS011;9867;48.094;11.478;2023-02-08T11:28:23;17.03;;;12.33;;
19456;SDS011;9867;48.094;11.478;2023-02-08T11:30:57;21.23;;;12.90;;
19456;SDS011;9867;48.094;11.478;2023-02-08T11:33:28;21.87;;;12.80;;
19456;SDS011;9867;48.094;11.478;2023-02-08T11:36:05;16.63;;;13.13;;
19456;SDS011;9867;48.094;11.478;2023-02-08T11:38:40;18.07;;;13.03;;
19456;SDS011;9867;48.094;11.478;2023-02-08T11:41:14;14.73;;;12.43;;
19456;SDS011;9867;48.094;11.478;2023-02-08T11:43:52;16.50;;;13.27;;
19456;SDS011;9867;48.094;11.478;2023-02-08T11:46:22;17.90;;;13.83;;
19456;SDS011;9867;48.094;11.478;2023-02-08T11:48:53;15.37;;;11.93;;
19456;SDS011;9867;48.094;11.478;2023-02-08T11:51:24;17.73;;;13.40;;
19456;SDS011;9867;48.094;11.478;2023-02-08T11:53:54;16.23;;;12.43;;
19456;SDS011;9867;48.094;11.478;2023-02-08T11:56:22;18.30;;;13.70;;
19456;SDS011;9867;48.094;11.478;2023-02-08T11:58:59;18.23;;;12.83;;
19456;SDS011;9867;48.094;11.478;2023-02-08T12:01:44;17.17;;;12.40;;
19456;SDS011;9867;48.094;11.478;2023-02-08T12:04:14;17.10;;;12.83;;
19456;SDS011;9867;48.094;11.478;2023-02-08T12:12:38;14.60;;;12.43;;
19456;SDS011;9867;48.094;11.478;2023-02-08T12:15:15;16.47;;;13.30;;
19456;SDS011;9867;48.094;11.478;2023-02-08T12:17:55;16.67;;;13.17;;
19456;SDS011;9867;48.094;11.478;2023-02-08T12:20:39;17.30;;;13.33;;
19456;SDS011;9867;48.094;11.478;2023-02-08T12:23:16;16.47;;;13.73;;
19456;SDS011;9867;48.094;11.478;2023-02-08T12:26:02;20.27;;;14.30;;
19456;SDS011;9867;48.094;11.478;2023-02-08T12:28:37;17.80;;;14.47;;
19456;SDS011;9867;48.094;11.478;2023-02-08T12:31:26;16.03;;;13.93;;
19456;SDS011;9867;48.094;11.478;2023-02-08T12:34:07;19.63;;;13.93;;
19456;SDS011;9867;48.094;11.478;2023-02-08T12:36:45;16.50;;;14.03;;
19456;SDS011;9867;48.094;11.478;2023-02-08T12:39:47;17.70;;;14.43;;
19456;SDS011;9867;48.094;11.478;2023-02-08T12:42:53;18.83;;;14.80;;
19456;SDS011;9867;48.094;11.478;2023-02-08T12:45:39;20.10;;;15.73;;
19456;SDS011;9867;48.094;11.478;2023-02-08T12:48:19;18.00;;;14.50;;
19456;SDS011;9867;48.094;11.478;2023-02-08T12:50:58;20.20;;;15.13;;
19456;SDS011;9867;48.094;11.478;2023-02-08T12:53:33;21.13;;;16.13;;
19456;SDS011;9867;48.094;11.478;2023-02-08T12:56:06;16.53;;;14.43;;
19456;SDS011;9867;48.094;11.478;2023-02-08T12:58:42;19.03;;;14.80;;
19456;SDS011;9867;48.094;11.478;2023-02-08T13:01:13;20.03;;;14.50;;
19456;SDS011;9867;48.094;11.478;2023-02-08T13:03:44;19.90;;;14.03;;
19456;SDS011;9867;48.094;11.478;2023-02-08T13:06:17;18.47;;;15.80;;
19456;SDS011;9867;48.094;11.478;2023-02-08T13:08:49;21.03;;;16.37;;
19456;SDS011;9867;48.094;11.478;2023-02-08T13:11:26;25.80;;;18.00;;
19456;SDS011;9867;48.094;11.478;2023-02-08T13:14:00;20.33;;;16.87;;
19456;SDS011;9867;48.094;11.478;2023-02-08T13:16:31;26.13;;;18.67;;
19456;SDS011;9867;48.094;11.478;2023-02-08T13:19:09;29.50;;;18.80;;
19456;SDS011;9867;48.094;11.478;2023-02-08T13:21:51;25.57;;;17.03;;
19456;SDS011;9867;48.094;11.478;2023-02-08T13:24:22;22.13;;;17.80;;
19456;SDS011;9867;48.094;11.478;2023-02-08T13:26:53;21.37;;;17.97;;
19456;SDS011;9867;48.094;11.478;2023-02-08T13:29:22;25.17;;;19.33;;
19456;SDS011;9867;48.094;11.478;2023-02-08T13:31:55;24.97;;;18.77;;
19456;SDS011;9867;48.094;11.478;2023-02-08T13:34:28;21.80;;;17.57;;
19456;SDS011;9867;48.094;11.478;2023-02-08T13:37:01;26.50;;;18.03;;
19456;SDS011;9867;48.094;11.478;2023-02-08T13:39:38;24.30;;;17.60;;
19456;SDS011;9867;48.094;11.478;2023-02-08T13:44:54;20.83;;;16.83;;
19456;SDS011;9867;48.094;11.478;2023-02-08T13:47:26;20.90;;;16.20;;
19456;SDS011;9867;48.094;11.478;2023-02-08T13:49:56;21.63;;;16.57;;
19456;SDS011;9867;48.094;11.478;2023-02-08T14:01:28;25.37;;;16.80;;
19456;SDS011;9867;48.094;11.478;2023-02-08T14:07:03;19.63;;;15.37;;
19456;SDS011;9867;48.094;11.478;2023-02-08T14:09:39;20.53;;;15.90;;
19456;SDS011;9867;48.094;11.478;2023-02-08T14:12:13;17.40;;;14.57;;
19456;SDS011;9867;48.094;11.478;2023-02-08T14:15:04;20.57;;;16.20;;
19456;SDS011;9867;48.094;11.478;2023-02-08T14:17:47;22.60;;;15.83;;
19456;SDS011;9867;48.094;11.478;2023-02-08T14:20:16;17.73;;;14.70;;
19456;SDS011;9867;48.094;11.478;2023-02-08T14:22:47;19.27;;;15.47;;
19456;SDS011;9867;48.094;11.478;2023-02-08T14:25:17;23.10;;;15.27;;
19456;SDS011;9867;48.094;11.478;2023-02-08T14:27:50;23.03;;;16.73;;
19456;SDS011;9867;48.094;11.478;2023-02-08T14:30:20;21.30;;;15.90;;
19456;SDS011;9867;48.094;11.478;2023-02-08T14:32:53;32.47;;;14.83;;
19456;SDS011;9867;48.094;11.478;2023-02-08T14:35:38;19.40;;;15.27;;
19456;SDS011;9867;48.094;11.478;2023-02-08T14:38:32;20.33;;;15.50;;
19456;SDS011;9867;48.094;11.478;2023-02-08T14:50:29;20.73;;;15.60;;
19456;SDS011;9867;48.094;11.478;2023-02-08T14:53:03;19.70;;;14.07;;
19456;SDS011;9867;48.094;11.478;2023-02-08T14:55:35;19.07;;;14.90;;
19456;SDS011;9867;48.094;11.478;2023-02-08T14:58:07;20.53;;;14.07;;
19456;SDS011;9867;48.094;11.478;2023-02-08T15:00:41;17.03;;;13.67;;
19456;SDS011;9867;48.094;11.478;2023-02-08T15:03:11;27.17;;;15.03;;
19456;SDS011;9867;48.094;11.478;2023-02-08T15:05:59;16.17;;;13.67;;
19456;SDS011;9867;48.094;11.478;2023-02-08T15:08:36;20.73;;;14.83;;
19456;SDS011;9867;48.094;11.478;2023-02-08T15:11:09;19.40;;;13.40;;
19456;SDS011;9867;48.094;11.478;2023-02-08T15:13:47;17.77;;;14.23;;
19456;SDS011;9867;48.094;11.478;2023-02-08T15:16:18;16.93;;;13.63;;
19456;SDS011;9867;48.094;11.478;2023-02-08T15:18:45;15.37;;;12.93;;
19456;SDS011;9867;48.094;11.478;2023-02-08T15:21:15;28.63;;;13.23;;